sensor_id;sensor_type;location;lat;lon;timestamp;P1;durP1;ratioP1;P2;durP2;ratioP2
4182;SDS011;2105;52.300;9.182;2023-09-07T00:00:00;12.63;;;11.47;;
4182;SDS011;2105;52.300;9.182;2023-09-07T00:02:30;15.00;;;11.57;;
4182;SDS011;2105;52.300;9.182;2023-09-07T00:04:57;13.37;;;11.13;;
4182;SDS011;2105;52.300;9.182;2023-09-07T00:07:23;12.07;;;11.10;;
4182;SDS011;2105;52.300;9.182;2023-09-07T00:09:51;12.23;;;11.00;;
4182;SDS011;2105;52.300;9.182;2023-09-07T00:12:18;12.57;;;11.67;;
4182;SDS011;2105;52.300;9.182;2023-09-07T00:14:45;12.80;;;11.50;;
4182;SDS011;2105;52.300;9.182;2023-09-07T00:17:11;12.37;;;11.33;;
4182;SDS011;2105;52.300;9.182;2023-09-07T00:19:38;12.77;;;11.60;;
4182;SDS011;2105;52.300;9.182;2023-09-07T00:22:05;12.10;;;11.10;;
4182;SDS011;2105;52.300;9.182;2023-09-07T00:24:31;11.73;;;10.77;;
4182;SDS011;2105;52.300;9.182;2023-09-07T00:26:59;12.13;;;11.20;;
4182;SDS011;2105;52.300;9.182;2023-09-07T00:29:30;12.33;;;11.43;;
4182;SDS011;2105;52.300;9.182;2023-09-07T00:31:57;12.90;;;11.70;;
4182;SDS011;2105;52.300;9.182;2023-09-07T00:34:24;13.87;;;12.30;;
4182;SDS011;2105;52.300;9.182;2023-09-07T00:36:50;13.37;;;12.13;;
4182;SDS011;2105;52.300;9.182;2023-09-07T00:39:17;12.30;;;11.30;;
4182;SDS011;2105;52.300;9.182;2023-09-07T00:41:44;12.43;;;11.53;;
4182;SDS011;2105;52.300;9.182;2023-09-07T00:44:12;12.97;;;11.97;;
4182;SDS011;2105;52.300;9.182;2023-09-07T00:46:39;13.03;;;11.93;;
4182;SDS011;2105;52.300;9.182;2023-09-07T00:49:06;13.47;;;12.10;;
4182;SDS011;2105;52.300;9.182;2023-09-07T00:51:33;13.00;;;11.87;;
4182;SDS011;2105;52.300;9.182;2023-09-07T00:54:00;12.80;;;11.80;;
4182;SDS011;2105;52.300;9.182;2023-09-07T00:56:27;12.27;;;11.37;;
4182;SDS011;2105;52.300;9.182;2023-09-07T00:58:54;14.73;;;13.43;;
4182;SDS011;2105;52.300;9.182;2023-09-07T01:01:25;11.90;;;11.00;;
4182;SDS011;2105;52.300;9.182;2023-09-07T01:03:52;12.33;;;11.23;;
4182;SDS011;2105;52.300;9.182;2023-09-07T01:06:22;13.73;;;12.33;;
4182;SDS011;2105;52.300;9.182;2023-09-07T01:08:55;12.80;;;11.60;;
4182;SDS011;2105;52.300;9.182;2023-09-07T01:11:35;10.87;;;9.97;;
4182;SDS011;2105;52.300;9.182;2023-09-07T01:14:03;11.53;;;10.50;;
4182;SDS011;2105;52.300;9.182;2023-09-07T01:16:31;10.80;;;10.00;;
4182;SDS011;2105;52.300;9.182;2023-09-07T01:18:59;11.00;;;10.00;;
4182;SDS011;2105;52.300;9.182;2023-09-07T01:21:27;10.87;;;9.97;;
4182;SDS011;2105;52.300;9.182;2023-09-07T01:24:00;11.07;;;10.07;;
4182;SDS011;2105;52.300;9.182;2023-09-07T01:26:27;10.30;;;9.30;;
4182;SDS011;2105;52.300;9.182;2023-09-07T01:28:54;10.20;;;9.30;;
4182;SDS011;2105;52.300;9.182;2023-09-07T01:31:21;10.53;;;9.63;;
4182;SDS011;2105;52.300;9.182;2023-09-07T01:33:48;10.93;;;9.93;;
4182;SDS011;2105;52.300;9.182;2023-09-07T01:36:14;10.17;;;9.07;;
4182;SDS011;2105;52.300;9.182;2023-09-07T01:38:42;10.37;;;9.50;;
4182;SDS011;2105;52.300;9.182;2023-09-07T01:41:09;9.13;;;8.47;;
4182;SDS011;2105;52.300;9.182;2023-09-07T01:43:37;10.13;;;9.13;;
4182;SDS011;2105;52.300;9.182;2023-09-07T01:46:05;10.80;;;9.70;;
4182;SDS011;2105;52.300;9.182;2023-09-07T01:48:31;10.20;;;9.47;;
4182;SDS011;2105;52.300;9.182;2023-09-07T01:50:58;10.83;;;9.87;;
4182;SDS011;2105;52.300;9.182;2023-09-07T01:53:25;15.50;;;9.60;;
4182;SDS011;2105;52.300;9.182;2023-09-07T01:55:54;10.90;;;10.00;;
4182;SDS011;2105;52.300;9.182;2023-09-07T01:58:21;10.03;;;9.20;;
4182;SDS011;2105;52.300;9.182;2023-09-07T02:00:49;10.43;;;9.50;;
4182;SDS011;2105;52.300;9.182;2023-09-07T02:03:15;11.40;;;10.30;;
4182;SDS011;2105;52.300;9.182;2023-09-07T02:05:43;10.67;;;9.50;;
4182;SDS011;2105;52.300;9.182;2023-09-07T02:08:11;10.20;;;9.30;;
4182;SDS011;2105;52.300;9.182;2023-09-07T02:10:38;10.40;;;9.40;;
4182;SDS011;2105;52.300;9.182;2023-09-07T02:13:06;10.20;;;9.30;;
4182;SDS011;2105;52.300;9.182;2023-09-07T02:15:34;11.23;;;10.10;;
4182;SDS011;2105;52.300;9.182;2023-09-07T02:18:03;10.90;;;10.10;;
4182;SDS011;2105;52.300;9.182;2023-09-07T02:20:30;10.50;;;9.70;;
4182;SDS011;2105;52.300;9.182;2023-09-07T02:22:57;10.70;;;9.60;;
4182;SDS011;2105;52.300;9.182;2023-09-07T02:25:24;11.50;;;10.50;;
4182;SDS011;2105;52.300;9.182;2023-09-07T02:27:52;10.87;;;9.97;;
4182;SDS011;2105;52.300;9.182;2023-09-07T02:30:20;13.87;;;9.83;;
4182;SDS011;2105;52.300;9.182;2023-09-07T02:32:47;12.80;;;9.83;;
4182;SDS011;2105;52.300;9.182;2023-09-07T02:35:14;16.30;;;10.37;;
4182;SDS011;2105;52.300;9.182;2023-09-07T02:37:40;11.60;;;10.40;;
4182;SDS011;2105;52.300;9.182;2023-09-07T02:40:07;10.77;;;9.80;;
4182;SDS011;2105;52.300;9.182;2023-09-07T02:42:35;11.27;;;10.37;;
4182;SDS011;2105;52.300;9.182;2023-09-07T02:45:01;10.33;;;9.33;;
4182;SDS011;2105;52.300;9.182;2023-09-07T02:47:30;11.57;;;10.17;;
4182;SDS011;2105;52.300;9.182;2023-09-07T02:49:57;10.83;;;10.00;;
4182;SDS011;2105;52.300;9.182;2023-09-07T02:52:24;12.27;;;10.67;;
4182;SDS011;2105;52.300;9.182;2023-09-07T02:54:51;12.30;;;10.60;;
4182;SDS011;2105;52.300;9.182;2023-09-07T02:57:18;11.33;;;10.33;;
4182;SDS011;2105;52.300;9.182;2023-09-07T02:59:45;11.40;;;10.50;;
4182;SDS011;2105;52.300;9.182;2023-09-07T03:02:11;10.57;;;9.67;;
4182;SDS011;2105;52.300;9.182;2023-09-07T03:04:39;11.20;;;10.20;;
4182;SDS011;2105;52.300;9.182;2023-09-07T03:07:06;13.13;;;10.73;;
4182;SDS011;2105;52.300;9.182;2023-09-07T03:09:34;12.20;;;11.10;;
4182;SDS011;2105;52.300;9.182;2023-09-07T03:12:01;11.90;;;10.70;;
4182;SDS011;2105;52.300;9.182;2023-09-07T03:14:27;12.50;;;9.97;;
4182;SDS011;2105;52.300;9.182;2023-09-07T03:16:54;11.60;;;10.53;;
4182;SDS011;2105;52.300;9.182;2023-09-07T03:19:21;11.27;;;10.17;;
4182;SDS011;2105;52.300;9.182;2023-09-07T03:21:49;11.83;;;10.70;;
4182;SDS011;2105;52.300;9.182;2023-09-07T03:24:16;12.20;;;11.07;;
4182;SDS011;2105;52.300;9.182;2023-09-07T03:26:42;12.60;;;11.43;;
4182;SDS011;2105;52.300;9.182;2023-09-07T03:29:09;11.97;;;10.97;;
4182;SDS011;2105;52.300;9.182;2023-09-07T03:31:36;13.17;;;11.37;;
4182;SDS011;2105;52.300;9.182;2023-09-07T03:34:03;13.20;;;10.60;;
4182;SDS011;2105;52.300;9.182;2023-09-07T03:36:30;11.13;;;10.23;;
4182;SDS011;2105;52.300;9.182;2023-09-07T03:38:58;11.90;;;10.90;;
4182;SDS011;2105;52.300;9.182;2023-09-07T03:41:25;12.17;;;10.67;;
4182;SDS011;2105;52.300;9.182;2023-09-07T03:43:55;12.63;;;11.53;;
4182;SDS011;2105;52.300;9.182;2023-09-07T03:46:22;12.60;;;11.20;;
4182;SDS011;2105;52.300;9.182;2023-09-07T03:48:49;12.03;;;11.00;;
4182;SDS011;2105;52.300;9.182;2023-09-07T03:51:16;12.20;;;11.10;;
4182;SDS011;2105;52.300;9.182;2023-09-07T03:53:43;12.43;;;11.43;;
4182;SDS011;2105;52.300;9.182;2023-09-07T03:56:12;12.03;;;11.03;;
4182;SDS011;2105;52.300;9.182;2023-09-07T03:58:38;12.00;;;10.80;;
4182;SDS011;2105;52.300;9.182;2023-09-07T04:01:06;10.83;;;10.03;;
4182;SDS011;2105;52.300;9.182;2023-09-07T04:03:32;11.70;;;10.50;;
4182;SDS011;2105;52.300;9.182;2023-09-07T04:05:59;12.90;;;11.70;;
4182;SDS011;2105;52.300;9.182;2023-09-07T04:08:26;12.53;;;11.30;;
4182;SDS011;2105;52.300;9.182;2023-09-07T04:10:53;12.40;;;11.40;;
4182;SDS011;2105;52.300;9.182;2023-09-07T04:13:21;15.93;;;10.97;;
4182;SDS011;2105;52.300;9.182;2023-09-07T04:15:48;12.67;;;11.57;;
4182;SDS011;2105;52.300;9.182;2023-09-07T04:18:15;12.30;;;11.20;;
4182;SDS011;2105;52.300;9.182;2023-09-07T04:20:42;12.67;;;11.63;;
4182;SDS011;2105;52.300;9.182;2023-09-07T04:23:09;12.13;;;10.93;;
4182;SDS011;2105;52.300;9.182;2023-09-07T04:25:36;12.43;;;11.33;;
4182;SDS011;2105;52.300;9.182;2023-09-07T04:28:04;11.50;;;10.53;;
4182;SDS011;2105;52.300;9.182;2023-09-07T04:30:32;12.03;;;11.03;;
4182;SDS011;2105;52.300;9.182;2023-09-07T04:33:03;12.60;;;11.50;;
4182;SDS011;2105;52.300;9.182;2023-09-07T04:35:30;12.63;;;11.37;;
4182;SDS011;2105;52.300;9.182;2023-09-07T04:37:57;11.93;;;10.93;;
4182;SDS011;2105;52.300;9.182;2023-09-07T04:40:24;11.90;;;10.90;;
4182;SDS011;2105;52.300;9.182;2023-09-07T04:42:51;12.40;;;11.30;;
4182;SDS011;2105;52.300;9.182;2023-09-07T04:45:18;16.20;;;12.80;;
4182;SDS011;2105;52.300;9.182;2023-09-07T04:47:46;12.67;;;11.37;;
4182;SDS011;2105;52.300;9.182;2023-09-07T04:50:13;11.97;;;10.87;;
4182;SDS011;2105;52.300;9.182;2023-09-07T04:52:39;12.13;;;11.10;;
4182;SDS011;2105;52.300;9.182;2023-09-07T04:55:06;13.73;;;12.33;;
4182;SDS011;2105;52.300;9.182;2023-09-07T04:57:34;14.07;;;10.77;;
4182;SDS011;2105;52.300;9.182;2023-09-07T05:00:02;11.93;;;10.67;;
4182;SDS011;2105;52.300;9.182;2023-09-07T05:02:30;12.63;;;11.53;;
4182;SDS011;2105;52.300;9.182;2023-09-07T05:04:58;14.30;;;11.73;;
4182;SDS011;2105;52.300;9.182;2023-09-07T05:07:24;12.63;;;11.63;;
4182;SDS011;2105;52.300;9.182;2023-09-07T05:09:51;13.97;;;12.77;;
4182;SDS011;2105;52.300;9.182;2023-09-07T05:12:18;16.33;;;12.50;;
4182;SDS011;2105;52.300;9.182;2023-09-07T05:14:45;17.17;;;12.60;;
4182;SDS011;2105;52.300;9.182;2023-09-07T05:17:12;13.43;;;12.13;;
4182;SDS011;2105;52.300;9.182;2023-09-07T05:19:38;13.17;;;12.13;;
4182;SDS011;2105;52.300;9.182;2023-09-07T05:22:07;13.60;;;12.30;;
4182;SDS011;2105;52.300;9.182;2023-09-07T05:24:33;13.10;;;12.10;;
4182;SDS011;2105;52.300;9.182;2023-09-07T05:27:00;14.37;;;12.97;;
4182;SDS011;2105;52.300;9.182;2023-09-07T05:29:28;15.07;;;13.37;;
4182;SDS011;2105;52.300;9.182;2023-09-07T05:31:55;15.00;;;13.30;;
4182;SDS011;2105;52.300;9.182;2023-09-07T05:34:21;14.23;;;12.93;;
4182;SDS011;2105;52.300;9.182;2023-09-07T05:36:48;23.13;;;13.17;;
4182;SDS011;2105;52.300;9.182;2023-09-07T05:39:16;14.20;;;13.07;;
4182;SDS011;2105;52.300;9.182;2023-09-07T05:41:43;14.47;;;13.27;;
4182;SDS011;2105;52.300;9.182;2023-09-07T05:44:10;15.07;;;13.47;;
4182;SDS011;2105;52.300;9.182;2023-09-07T05:46:36;16.40;;;14.80;;
4182;SDS011;2105;52.300;9.182;2023-09-07T05:49:03;15.27;;;13.77;;
4182;SDS011;2105;52.300;9.182;2023-09-07T05:51:30;15.43;;;13.83;;
4182;SDS011;2105;52.300;9.182;2023-09-07T05:53:57;15.57;;;13.80;;
4182;SDS011;2105;52.300;9.182;2023-09-07T05:56:25;15.93;;;13.90;;
4182;SDS011;2105;52.300;9.182;2023-09-07T05:58:52;19.03;;;14.70;;
4182;SDS011;2105;52.300;9.182;2023-09-07T06:01:19;17.00;;;14.37;;
4182;SDS011;2105;52.300;9.182;2023-09-07T06:03:46;16.33;;;14.60;;
4182;SDS011;2105;52.300;9.182;2023-09-07T06:06:13;15.83;;;14.33;;
4182;SDS011;2105;52.300;9.182;2023-09-07T06:08:39;16.47;;;15.07;;
4182;SDS011;2105;52.300;9.182;2023-09-07T06:11:06;17.90;;;14.87;;
4182;SDS011;2105;52.300;9.182;2023-09-07T06:13:34;16.47;;;14.43;;
4182;SDS011;2105;52.300;9.182;2023-09-07T06:16:01;17.57;;;15.57;;
4182;SDS011;2105;52.300;9.182;2023-09-07T06:18:28;16.73;;;15.10;;
4182;SDS011;2105;52.300;9.182;2023-09-07T06:20:54;15.73;;;14.33;;
4182;SDS011;2105;52.300;9.182;2023-09-07T06:23:21;17.17;;;15.70;;
4182;SDS011;2105;52.300;9.182;2023-09-07T06:25:48;16.40;;;15.20;;
4182;SDS011;2105;52.300;9.182;2023-09-07T06:28:14;16.80;;;15.40;;
4182;SDS011;2105;52.300;9.182;2023-09-07T06:30:43;17.57;;;16.03;;
4182;SDS011;2105;52.300;9.182;2023-09-07T06:33:09;17.23;;;15.53;;
4182;SDS011;2105;52.300;9.182;2023-09-07T06:35:36;17.17;;;15.70;;
4182;SDS011;2105;52.300;9.182;2023-09-07T06:38:03;17.70;;;16.00;;
4182;SDS011;2105;52.300;9.182;2023-09-07T06:40:29;17.23;;;15.90;;
4182;SDS011;2105;52.300;9.182;2023-09-07T06:42:56;16.93;;;15.47;;
4182;SDS011;2105;52.300;9.182;2023-09-07T06:45:23;17.37;;;15.83;;
4182;SDS011;2105;52.300;9.182;2023-09-07T06:47:51;17.77;;;16.37;;
4182;SDS011;2105;52.300;9.182;2023-09-07T06:50:19;18.13;;;16.73;;
4182;SDS011;2105;52.300;9.182;2023-09-07T06:52:46;18.00;;;16.40;;
4182;SDS011;2105;52.300;9.182;2023-09-07T06:55:13;19.10;;;17.40;;
4182;SDS011;2105;52.300;9.182;2023-09-07T06:57:39;18.77;;;17.07;;
4182;SDS011;2105;52.300;9.182;2023-09-07T07:00:07;18.90;;;17.27;;
4182;SDS011;2105;52.300;9.182;2023-09-07T07:02:35;16.67;;;15.10;;
4182;SDS011;2105;52.300;9.182;2023-09-07T07:05:03;17.30;;;15.80;;
4182;SDS011;2105;52.300;9.182;2023-09-07T07:07:30;16.63;;;15.13;;
4182;SDS011;2105;52.300;9.182;2023-09-07T07:09:57;17.17;;;15.50;;
4182;SDS011;2105;52.300;9.182;2023-09-07T07:12:24;16.10;;;14.93;;
4182;SDS011;2105;52.300;9.182;2023-09-07T07:14:51;16.60;;;15.27;;
4182;SDS011;2105;52.300;9.182;2023-09-07T07:17:18;16.17;;;14.87;;
4182;SDS011;2105;52.300;9.182;2023-09-07T07:19:44;19.40;;;17.73;;
4182;SDS011;2105;52.300;9.182;2023-09-07T07:22:13;19.70;;;18.20;;
4182;SDS011;2105;52.300;9.182;2023-09-07T07:24:40;20.57;;;18.60;;
4182;SDS011;2105;52.300;9.182;2023-09-07T07:27:06;19.83;;;18.03;;
4182;SDS011;2105;52.300;9.182;2023-09-07T07:29:34;21.37;;;16.30;;
4182;SDS011;2105;52.300;9.182;2023-09-07T07:32:01;17.47;;;16.07;;
4182;SDS011;2105;52.300;9.182;2023-09-07T07:34:28;18.70;;;17.20;;
4182;SDS011;2105;52.300;9.182;2023-09-07T07:36:55;18.60;;;17.10;;
4182;SDS011;2105;52.300;9.182;2023-09-07T07:39:23;18.37;;;16.67;;
4182;SDS011;2105;52.300;9.182;2023-09-07T07:41:50;18.10;;;16.50;;
4182;SDS011;2105;52.300;9.182;2023-09-07T07:44:16;18.07;;;16.67;;
4182;SDS011;2105;52.300;9.182;2023-09-07T07:46:43;18.67;;;16.90;;
4182;SDS011;2105;52.300;9.182;2023-09-07T07:49:10;19.83;;;18.23;;
4182;SDS011;2105;52.300;9.182;2023-09-07T07:51:37;19.30;;;17.50;;
4182;SDS011;2105;52.300;9.182;2023-09-07T07:54:04;19.00;;;17.40;;
4182;SDS011;2105;52.300;9.182;2023-09-07T07:56:32;19.40;;;17.43;;
4182;SDS011;2105;52.300;9.182;2023-09-07T07:58:59;19.83;;;17.87;;
4182;SDS011;2105;52.300;9.182;2023-09-07T08:01:25;18.80;;;17.20;;
4182;SDS011;2105;52.300;9.182;2023-09-07T08:03:54;18.67;;;16.93;;
4182;SDS011;2105;52.300;9.182;2023-09-07T08:06:21;17.23;;;15.83;;
4182;SDS011;2105;52.300;9.182;2023-09-07T08:08:48;17.03;;;15.73;;
4182;SDS011;2105;52.300;9.182;2023-09-07T08:11:14;18.17;;;16.60;;
4182;SDS011;2105;52.300;9.182;2023-09-07T08:13:43;19.57;;;17.90;;
4182;SDS011;2105;52.300;9.182;2023-09-07T08:16:11;20.23;;;18.30;;
4182;SDS011;2105;52.300;9.182;2023-09-07T08:18:39;20.97;;;18.73;;
4182;SDS011;2105;52.300;9.182;2023-09-07T08:21:06;84.90;;;20.00;;
4182;SDS011;2105;52.300;9.182;2023-09-07T08:23:34;19.33;;;17.53;;
4182;SDS011;2105;52.300;9.182;2023-09-07T08:26:01;19.50;;;17.80;;
4182;SDS011;2105;52.300;9.182;2023-09-07T08:28:30;21.03;;;17.83;;
4182;SDS011;2105;52.300;9.182;2023-09-07T08:30:59;21.17;;;17.70;;
4182;SDS011;2105;52.300;9.182;2023-09-07T08:33:26;18.00;;;16.60;;
4182;SDS011;2105;52.300;9.182;2023-09-07T08:35:55;18.47;;;17.07;;
4182;SDS011;2105;52.300;9.182;2023-09-07T08:38:22;18.60;;;17.20;;
4182;SDS011;2105;52.300;9.182;2023-09-07T08:40:53;19.03;;;17.43;;
4182;SDS011;2105;52.300;9.182;2023-09-07T08:43:21;21.13;;;19.33;;
4182;SDS011;2105;52.300;9.182;2023-09-07T08:45:50;21.63;;;19.53;;
4182;SDS011;2105;52.300;9.182;2023-09-07T08:48:25;20.70;;;18.90;;
4182;SDS011;2105;52.300;9.182;2023-09-07T08:50:54;20.80;;;19.17;;
4182;SDS011;2105;52.300;9.182;2023-09-07T08:53:22;21.10;;;19.23;;
4182;SDS011;2105;52.300;9.182;2023-09-07T08:55:49;21.40;;;19.40;;
4182;SDS011;2105;52.300;9.182;2023-09-07T08:58:16;20.80;;;18.80;;
4182;SDS011;2105;52.300;9.182;2023-09-07T09:00:43;19.17;;;17.50;;
4182;SDS011;2105;52.300;9.182;2023-09-07T09:03:10;18.57;;;16.97;;
4182;SDS011;2105;52.300;9.182;2023-09-07T09:05:39;19.27;;;17.47;;
4182;SDS011;2105;52.300;9.182;2023-09-07T09:08:07;18.40;;;16.77;;
4182;SDS011;2105;52.300;9.182;2023-09-07T09:10:34;21.53;;;19.60;;
4182;SDS011;2105;52.300;9.182;2023-09-07T09:13:04;21.87;;;19.97;;
4182;SDS011;2105;52.300;9.182;2023-09-07T09:15:31;21.73;;;19.83;;
4182;SDS011;2105;52.300;9.182;2023-09-07T09:17:58;58.93;;;20.93;;
4182;SDS011;2105;52.300;9.182;2023-09-07T09:20:37;21.00;;;19.23;;
4182;SDS011;2105;52.300;9.182;2023-09-07T09:23:06;20.70;;;19.00;;
4182;SDS011;2105;52.300;9.182;2023-09-07T09:25:33;21.30;;;19.20;;
4182;SDS011;2105;52.300;9.182;2023-09-07T09:27:59;21.90;;;19.23;;
4182;SDS011;2105;52.300;9.182;2023-09-07T09:30:26;20.60;;;17.30;;
4182;SDS011;2105;52.300;9.182;2023-09-07T09:32:53;53.23;;;18.10;;
4182;SDS011;2105;52.300;9.182;2023-09-07T09:35:20;19.07;;;17.10;;
4182;SDS011;2105;52.300;9.182;2023-09-07T09:37:48;20.47;;;18.90;;
4182;SDS011;2105;52.300;9.182;2023-09-07T09:40:16;21.97;;;19.13;;
4182;SDS011;2105;52.300;9.182;2023-09-07T09:42:44;20.60;;;18.90;;
4182;SDS011;2105;52.300;9.182;2023-09-07T09:45:11;20.40;;;18.57;;
4182;SDS011;2105;52.300;9.182;2023-09-07T09:47:39;21.20;;;18.90;;
4182;SDS011;2105;52.300;9.182;2023-09-07T09:50:06;24.53;;;19.27;;
4182;SDS011;2105;52.300;9.182;2023-09-07T09:52:34;25.17;;;18.50;;
4182;SDS011;2105;52.300;9.182;2023-09-07T09:55:01;21.17;;;18.77;;
4182;SDS011;2105;52.300;9.182;2023-09-07T09:57:32;20.00;;;18.50;;
4182;SDS011;2105;52.300;9.182;2023-09-07T09:59:59;21.00;;;19.20;;
4182;SDS011;2105;52.300;9.182;2023-09-07T10:02:35;18.90;;;17.20;;
4182;SDS011;2105;52.300;9.182;2023-09-07T10:05:04;18.37;;;16.77;;
4182;SDS011;2105;52.300;9.182;2023-09-07T10:07:41;20.70;;;18.93;;
4182;SDS011;2105;52.300;9.182;2023-09-07T10:10:09;21.53;;;19.50;;
4182;SDS011;2105;52.300;9.182;2023-09-07T10:12:42;22.30;;;20.50;;
4182;SDS011;2105;52.300;9.182;2023-09-07T10:15:19;22.77;;;20.77;;
4182;SDS011;2105;52.300;9.182;2023-09-07T10:17:47;25.57;;;20.27;;
4182;SDS011;2105;52.300;9.182;2023-09-07T10:20:15;21.90;;;20.07;;
4182;SDS011;2105;52.300;9.182;2023-09-07T10:22:43;22.33;;;20.53;;
4182;SDS011;2105;52.300;9.182;2023-09-07T10:25:20;38.10;;;22.30;;
4182;SDS011;2105;52.300;9.182;2023-09-07T10:27:49;43.67;;;22.10;;
4182;SDS011;2105;52.300;9.182;2023-09-07T10:30:15;22.93;;;21.20;;
4182;SDS011;2105;52.300;9.182;2023-09-07T10:32:44;20.97;;;19.30;;
4182;SDS011;2105;52.300;9.182;2023-09-07T10:35:13;22.00;;;20.20;;
4182;SDS011;2105;52.300;9.182;2023-09-07T10:37:41;23.93;;;21.00;;
4182;SDS011;2105;52.300;9.182;2023-09-07T10:40:10;55.30;;;21.93;;
4182;SDS011;2105;52.300;9.182;2023-09-07T10:42:37;33.57;;;20.47;;
4182;SDS011;2105;52.300;9.182;2023-09-07T10:45:12;21.90;;;20.13;;
4182;SDS011;2105;52.300;9.182;2023-09-07T10:47:41;22.60;;;20.30;;
4182;SDS011;2105;52.300;9.182;2023-09-07T10:50:10;21.77;;;19.90;;
4182;SDS011;2105;52.300;9.182;2023-09-07T10:52:38;22.33;;;20.53;;
4182;SDS011;2105;52.300;9.182;2023-09-07T10:55:06;22.77;;;20.10;;
4182;SDS011;2105;52.300;9.182;2023-09-07T10:57:40;21.60;;;19.70;;
4182;SDS011;2105;52.300;9.182;2023-09-07T11:00:09;21.73;;;19.87;;
4182;SDS011;2105;52.300;9.182;2023-09-07T11:02:39;21.23;;;19.53;;
4182;SDS011;2105;52.300;9.182;2023-09-07T11:05:06;22.90;;;21.10;;
4182;SDS011;2105;52.300;9.182;2023-09-07T11:07:33;23.00;;;21.10;;
4182;SDS011;2105;52.300;9.182;2023-09-07T11:10:00;22.43;;;20.60;;
4182;SDS011;2105;52.300;9.182;2023-09-07T11:12:29;24.33;;;21.83;;
4182;SDS011;2105;52.300;9.182;2023-09-07T11:14:56;22.00;;;20.20;;
4182;SDS011;2105;52.300;9.182;2023-09-07T11:17:28;21.73;;;19.70;;
4182;SDS011;2105;52.300;9.182;2023-09-07T11:19:55;22.33;;;20.10;;
4182;SDS011;2105;52.300;9.182;2023-09-07T11:22:21;21.60;;;19.90;;
4182;SDS011;2105;52.300;9.182;2023-09-07T11:24:48;21.80;;;20.00;;
4182;SDS011;2105;52.300;9.182;2023-09-07T11:27:16;22.60;;;20.40;;
4182;SDS011;2105;52.300;9.182;2023-09-07T11:29:49;21.53;;;19.70;;
4182;SDS011;2105;52.300;9.182;2023-09-07T11:32:17;21.90;;;20.00;;
4182;SDS011;2105;52.300;9.182;2023-09-07T11:34:48;22.97;;;20.47;;
4182;SDS011;2105;52.300;9.182;2023-09-07T11:37:16;22.83;;;20.83;;
4182;SDS011;2105;52.300;9.182;2023-09-07T11:39:42;22.37;;;20.63;;
4182;SDS011;2105;52.300;9.182;2023-09-07T11:42:08;23.27;;;21.17;;
4182;SDS011;2105;52.300;9.182;2023-09-07T11:44:35;21.60;;;19.90;;
4182;SDS011;2105;52.300;9.182;2023-09-07T11:47:02;23.13;;;20.90;;
4182;SDS011;2105;52.300;9.182;2023-09-07T11:49:29;23.00;;;20.90;;
4182;SDS011;2105;52.300;9.182;2023-09-07T11:51:58;22.07;;;20.17;;
4182;SDS011;2105;52.300;9.182;2023-09-07T11:54:25;23.30;;;21.20;;
4182;SDS011;2105;52.300;9.182;2023-09-07T11:56:52;23.10;;;20.83;;
4182;SDS011;2105;52.300;9.182;2023-09-07T11:59:19;22.60;;;20.67;;
4182;SDS011;2105;52.300;9.182;2023-09-07T12:01:45;22.13;;;20.23;;
4182;SDS011;2105;52.300;9.182;2023-09-07T12:04:12;21.53;;;19.73;;
4182;SDS011;2105;52.300;9.182;2023-09-07T12:06:39;22.50;;;20.20;;
4182;SDS011;2105;52.300;9.182;2023-09-07T12:09:07;25.10;;;20.57;;
4182;SDS011;2105;52.300;9.182;2023-09-07T12:11:34;22.90;;;20.60;;
4182;SDS011;2105;52.300;9.182;2023-09-07T12:14:01;22.90;;;20.60;;
4182;SDS011;2105;52.300;9.182;2023-09-07T12:16:28;22.70;;;20.70;;
4182;SDS011;2105;52.300;9.182;2023-09-07T12:18:55;22.97;;;20.60;;
4182;SDS011;2105;52.300;9.182;2023-09-07T12:21:22;21.83;;;19.80;;
4182;SDS011;2105;52.300;9.182;2023-09-07T12:23:49;21.83;;;19.80;;
4182;SDS011;2105;52.300;9.182;2023-09-07T12:26:17;23.40;;;21.17;;
4182;SDS011;2105;52.300;9.182;2023-09-07T12:28:45;22.43;;;20.40;;
4182;SDS011;2105;52.300;9.182;2023-09-07T12:31:13;22.13;;;20.20;;
4182;SDS011;2105;52.300;9.182;2023-09-07T12:33:40;22.90;;;20.60;;
4182;SDS011;2105;52.300;9.182;2023-09-07T12:36:06;23.03;;;19.70;;
4182;SDS011;2105;52.300;9.182;2023-09-07T12:38:35;25.13;;;20.23;;
4182;SDS011;2105;52.300;9.182;2023-09-07T12:41:01;21.30;;;19.30;;
4182;SDS011;2105;52.300;9.182;2023-09-07T12:43:30;21.27;;;19.37;;
4182;SDS011;2105;52.300;9.182;2023-09-07T12:45:57;21.53;;;19.60;;
4182;SDS011;2105;52.300;9.182;2023-09-07T12:48:24;21.23;;;19.20;;
4182;SDS011;2105;52.300;9.182;2023-09-07T12:50:51;22.73;;;19.10;;
4182;SDS011;2105;52.300;9.182;2023-09-07T12:53:17;21.47;;;19.47;;
4182;SDS011;2105;52.300;9.182;2023-09-07T12:55:44;22.47;;;20.47;;
4182;SDS011;2105;52.300;9.182;2023-09-07T12:58:11;21.07;;;19.20;;
4182;SDS011;2105;52.300;9.182;2023-09-07T13:00:39;21.30;;;19.50;;
4182;SDS011;2105;52.300;9.182;2023-09-07T13:03:06;21.47;;;19.67;;
4182;SDS011;2105;52.300;9.182;2023-09-07T13:05:33;22.67;;;20.73;;
4182;SDS011;2105;52.300;9.182;2023-09-07T13:08:00;22.30;;;20.20;;
4182;SDS011;2105;52.300;9.182;2023-09-07T13:10:28;21.83;;;19.83;;
4182;SDS011;2105;52.300;9.182;2023-09-07T13:12:54;22.00;;;19.77;;
4182;SDS011;2105;52.300;9.182;2023-09-07T13:15:21;21.47;;;19.47;;
4182;SDS011;2105;52.300;9.182;2023-09-07T13:17:50;21.67;;;19.27;;
4182;SDS011;2105;52.300;9.182;2023-09-07T13:20:16;21.87;;;19.77;;
4182;SDS011;2105;52.300;9.182;2023-09-07T13:22:44;21.20;;;19.20;;
4182;SDS011;2105;52.300;9.182;2023-09-07T13:25:12;21.37;;;19.40;;
4182;SDS011;2105;52.300;9.182;2023-09-07T13:27:39;21.97;;;19.63;;
4182;SDS011;2105;52.300;9.182;2023-09-07T13:30:06;21.33;;;19.20;;
4182;SDS011;2105;52.300;9.182;2023-09-07T13:32:34;21.40;;;19.53;;
4182;SDS011;2105;52.300;9.182;2023-09-07T13:35:02;21.20;;;19.33;;
4182;SDS011;2105;52.300;9.182;2023-09-07T13:37:29;22.13;;;19.63;;
4182;SDS011;2105;52.300;9.182;2023-09-07T13:39:56;20.07;;;18.47;;
4182;SDS011;2105;52.300;9.182;2023-09-07T13:42:24;23.90;;;18.93;;
4182;SDS011;2105;52.300;9.182;2023-09-07T13:44:52;20.70;;;18.87;;
4182;SDS011;2105;52.300;9.182;2023-09-07T13:47:19;21.33;;;19.00;;
4182;SDS011;2105;52.300;9.182;2023-09-07T13:49:45;21.83;;;19.50;;
4182;SDS011;2105;52.300;9.182;2023-09-07T13:52:13;21.03;;;18.83;;
4182;SDS011;2105;52.300;9.182;2023-09-07T13:54:40;20.87;;;18.87;;
4182;SDS011;2105;52.300;9.182;2023-09-07T13:57:07;20.60;;;18.80;;
4182;SDS011;2105;52.300;9.182;2023-09-07T13:59:34;21.10;;;19.23;;
4182;SDS011;2105;52.300;9.182;2023-09-07T14:02:01;20.53;;;18.33;;
4182;SDS011;2105;52.300;9.182;2023-09-07T14:04:28;24.63;;;18.70;;
4182;SDS011;2105;52.300;9.182;2023-09-07T14:06:56;21.17;;;19.17;;
4182;SDS011;2105;52.300;9.182;2023-09-07T14:09:24;21.47;;;19.33;;
4182;SDS011;2105;52.300;9.182;2023-09-07T14:11:50;22.50;;;19.00;;
4182;SDS011;2105;52.300;9.182;2023-09-07T14:14:17;20.77;;;19.00;;
4182;SDS011;2105;52.300;9.182;2023-09-07T14:16:44;20.83;;;18.63;;
4182;SDS011;2105;52.300;9.182;2023-09-07T14:19:11;21.10;;;19.20;;
4182;SDS011;2105;52.300;9.182;2023-09-07T14:21:37;24.40;;;19.07;;
4182;SDS011;2105;52.300;9.182;2023-09-07T14:24:04;21.13;;;19.27;;
4182;SDS011;2105;52.300;9.182;2023-09-07T14:26:32;21.07;;;19.10;;
4182;SDS011;2105;52.300;9.182;2023-09-07T14:28:59;21.20;;;19.20;;
4182;SDS011;2105;52.300;9.182;2023-09-07T14:31:27;25.13;;;19.50;;
4182;SDS011;2105;52.300;9.182;2023-09-07T14:33:53;21.43;;;19.30;;
4182;SDS011;2105;52.300;9.182;2023-09-07T14:36:20;20.33;;;18.53;;
4182;SDS011;2105;52.300;9.182;2023-09-07T14:38:47;20.90;;;19.10;;
4182;SDS011;2105;52.300;9.182;2023-09-07T14:41:14;21.27;;;19.23;;
4182;SDS011;2105;52.300;9.182;2023-09-07T14:46:13;20.57;;;18.87;;
4182;SDS011;2105;52.300;9.182;2023-09-07T14:48:40;21.13;;;19.20;;
4182;SDS011;2105;52.300;9.182;2023-09-07T14:51:07;20.93;;;19.00;;